createdAt,value
2022-12-31T07:12:30.811Z,14.73
2022-12-31T07:13:32.832Z,14.77
2022-12-31T07:14:34.916Z,14.76
2022-12-31T07:15:36.925Z,14.77
2022-12-31T07:16:38.942Z,14.78
2022-12-31T07:17:40.978Z,14.81
2022-12-31T07:18:42.988Z,14.81
2022-12-31T07:19:45.062Z,14.81
2022-12-31T07:20:47.077Z,14.84
2022-12-31T07:21:49.083Z,14.87
2022-12-31T07:22:51.098Z,14.90
2022-12-31T07:23:53.129Z,14.91
2022-12-31T07:24:55.208Z,14.96
2022-12-31T07:25:57.225Z,14.98
2022-12-31T07:26:59.282Z,15.01
2022-12-31T07:28:01.318Z,14.98
2022-12-31T07:29:03.322Z,14.99
2022-12-31T07:30:05.359Z,15.01
2022-12-31T07:31:07.424Z,15.02
2022-12-31T07:32:09.416Z,15.05
2022-12-31T07:33:11.427Z,15.05
2022-12-31T07:34:13.459Z,15.08
2022-12-31T07:35:15.527Z,15.09
2022-12-31T07:36:17.678Z,15.09
2022-12-31T07:37:19.713Z,15.09
2022-12-31T07:38:21.724Z,15.09
2022-12-31T07:39:23.724Z,15.14
2022-12-31T07:40:25.750Z,15.14
2022-12-31T07:41:37.685Z,15.14
2022-12-31T07:42:29.824Z,15.17
2022-12-31T07:43:31.843Z,15.20
2022-12-31T07:44:33.892Z,15.20
2022-12-31T07:45:35.933Z,15.20
2022-12-31T07:46:38.010Z,15.20
2022-12-31T07:47:40.023Z,15.23
2022-12-31T07:48:42.057Z,15.23
2022-12-31T07:49:44.069Z,15.27
2022-12-31T07:50:46.111Z,15.28
2022-12-31T07:51:48.121Z,15.27
2022-12-31T07:52:50.152Z,15.32
2022-12-31T07:53:52.165Z,15.34
2022-12-31T07:54:54.177Z,15.32
2022-12-31T07:55:56.212Z,15.34
2022-12-31T07:56:58.209Z,15.30
2022-12-31T07:58:00.275Z,15.34
2022-12-31T07:59:02.290Z,15.35
2022-12-31T08:00:04.320Z,15.39
2022-12-31T08:01:06.431Z,15.38
2022-12-31T08:02:08.593Z,15.41
2022-12-31T08:03:09.600Z,15.41
2022-12-31T08:04:11.627Z,15.41
2022-12-31T08:05:13.639Z,15.41
2022-12-31T08:06:15.664Z,15.39
2022-12-31T08:07:17.683Z,15.39
2022-12-31T08:08:19.679Z,15.42
2022-12-31T08:09:21.699Z,15.41
2022-12-31T08:10:23.711Z,15.43
2022-12-31T08:11:25.747Z,15.41
2022-12-31T08:12:27.756Z,15.39
2022-12-31T08:13:29.767Z,15.36
2022-12-31T08:14:31.783Z,15.36
2022-12-31T08:15:33.826Z,15.35
2022-12-31T08:16:35.931Z,15.38
2022-12-31T08:17:37.929Z,15.38
2022-12-31T08:18:39.939Z,15.39
2022-12-31T08:19:41.953Z,15.43
2022-12-31T08:20:44.000Z,15.46
2022-12-31T08:21:46.056Z,15.46
2022-12-31T08:22:48.073Z,15.45
2022-12-31T08:23:50.090Z,15.46
2022-12-31T08:24:52.135Z,15.46
2022-12-31T08:25:54.192Z,15.46
2022-12-31T08:26:56.270Z,15.46
2022-12-31T08:27:58.272Z,15.43
2022-12-31T08:29:00.271Z,15.45
2022-12-31T08:30:02.294Z,15.46
2022-12-31T08:31:04.299Z,15.46
2022-12-31T08:32:06.336Z,15.51
2022-12-31T08:33:08.360Z,15.54
2022-12-31T08:34:10.373Z,15.54
2022-12-31T08:35:12.387Z,15.55
2022-12-31T08:36:14.406Z,15.58
2022-12-31T08:37:16.429Z,15.55
2022-12-31T08:38:18.441Z,15.55
2022-12-31T08:39:20.479Z,15.55
2022-12-31T08:40:22.491Z,15.57
2022-12-31T08:41:24.584Z,15.55
2022-12-31T08:42:26.618Z,15.58
2022-12-31T08:43:28.627Z,15.61
2022-12-31T08:44:30.688Z,15.64
2022-12-31T08:45:32.796Z,15.64
2022-12-31T08:46:34.798Z,15.61
2022-12-31T08:47:38.612Z,15.59
2022-12-31T08:48:38.592Z,15.59
2022-12-31T08:49:40.683Z,15.59
2022-12-31T08:50:42.711Z,15.59
2022-12-31T08:51:44.749Z,15.58
2022-12-31T08:52:46.794Z,15.57
2022-12-31T08:53:48.832Z,15.55
2022-12-31T08:54:50.836Z,15.57
2022-12-31T08:55:52.877Z,15.61
2022-12-31T08:56:54.891Z,15.62
2022-12-31T08:57:56.925Z,15.61
2022-12-31T08:58:58.951Z,15.59
2022-12-31T09:00:00.963Z,15.62
2022-12-31T09:01:02.993Z,15.62
2022-12-31T09:02:05.069Z,15.64
2022-12-31T09:03:07.144Z,15.64
2022-12-31T09:04:09.196Z,15.68
2022-12-31T09:05:11.205Z,15.68
2022-12-31T09:06:13.217Z,15.70
2022-12-31T09:07:15.266Z,15.67
2022-12-31T09:08:17.280Z,15.72
2022-12-31T09:09:19.323Z,15.76
2022-12-31T09:10:21.363Z,15.80
2022-12-31T09:11:23.784Z,15.82
2022-12-31T09:12:24.723Z,15.88
2022-12-31T09:13:26.760Z,15.97
2022-12-31T09:14:28.773Z,16.01
2022-12-31T09:15:30.798Z,16.05
2022-12-31T09:16:32.841Z,16.10
2022-12-31T09:17:34.839Z,16.17
2022-12-31T09:18:36.847Z,16.20
2022-12-31T09:19:38.889Z,16.22
2022-12-31T09:20:43.878Z,16.27
2022-12-31T09:21:42.107Z,16.28
2022-12-31T09:22:44.140Z,16.32
2022-12-31T09:23:46.213Z,16.31
2022-12-31T09:24:48.229Z,16.37
2022-12-31T09:25:50.259Z,16.37
2022-12-31T09:26:52.293Z,16.38
2022-12-31T09:27:54.324Z,16.41
2022-12-31T09:28:56.346Z,16.41
2022-12-31T09:29:58.385Z,16.46
2022-12-31T09:31:00.488Z,16.45
2022-12-31T09:32:02.540Z,16.46
2022-12-31T09:33:04.572Z,16.46
2022-12-31T09:34:06.597Z,16.46
2022-12-31T09:35:08.628Z,16.46
2022-12-31T09:36:10.652Z,16.46
2022-12-31T09:37:12.666Z,16.46
2022-12-31T09:38:14.693Z,16.50
2022-12-31T09:39:16.836Z,16.52
2022-12-31T09:40:18.820Z,16.57
2022-12-31T09:41:20.844Z,16.64
2022-12-31T09:42:22.871Z,16.71
2022-12-31T09:43:24.875Z,16.71
2022-12-31T09:44:26.924Z,16.73
2022-12-31T09:45:28.986Z,16.73
2022-12-31T09:46:30.977Z,16.75
2022-12-31T09:47:33.011Z,16.75
2022-12-31T09:48:35.028Z,16.75
2022-12-31T09:49:37.072Z,16.74
2022-12-31T09:50:39.097Z,16.75
2022-12-31T09:51:41.104Z,16.77
2022-12-31T09:52:43.116Z,16.78
2022-12-31T09:53:45.126Z,16.78
2022-12-31T09:54:47.202Z,16.80
2022-12-31T09:55:49.235Z,16.83
2022-12-31T09:56:57.141Z,16.82
2022-12-31T09:57:52.677Z,16.86
2022-12-31T09:58:54.715Z,16.86
2022-12-31T09:59:56.783Z,16.91
2022-12-31T10:00:58.956Z,16.91
2022-12-31T10:02:00.218Z,16.96
2022-12-31T10:03:01.263Z,17.01
2022-12-31T10:04:03.279Z,17.01
2022-12-31T10:05:05.346Z,17.01
2022-12-31T10:06:07.337Z,17.04
2022-12-31T10:07:09.375Z,17.06
2022-12-31T10:08:11.401Z,17.08
2022-12-31T10:09:13.439Z,17.08
2022-12-31T10:10:15.464Z,17.12
2022-12-31T10:11:17.504Z,17.14
2022-12-31T10:12:19.523Z,17.19
2022-12-31T10:13:21.570Z,17.16
2022-12-31T10:14:23.590Z,17.20
2022-12-31T10:15:25.636Z,17.23
2022-12-31T10:16:27.648Z,17.29
2022-12-31T10:17:29.669Z,17.29
2022-12-31T10:18:31.686Z,17.27
2022-12-31T10:19:33.699Z,17.26
2022-12-31T10:20:41.597Z,17.22
2022-12-31T10:21:37.208Z,17.26
2022-12-31T10:22:39.269Z,17.26
2022-12-31T10:23:41.314Z,17.27
2022-12-31T10:24:43.335Z,17.31
2022-12-31T10:25:45.399Z,17.38
2022-12-31T10:26:53.016Z,17.42
2022-12-31T10:27:48.828Z,17.46
2022-12-31T10:28:50.855Z,17.52
2022-12-31T10:29:52.879Z,17.67
2022-12-31T10:30:54.951Z,17.79
2022-12-31T10:31:56.974Z,17.82
2022-12-31T10:32:58.987Z,17.89
2022-12-31T10:34:01.021Z,18.60
2022-12-31T10:35:03.034Z,19.23
2022-12-31T10:36:05.068Z,19.77
2022-12-31T10:37:07.098Z,20.16
2022-12-31T10:38:09.155Z,20.28
2022-12-31T10:39:15.389Z,20.14
2022-12-31T10:40:12.638Z,19.81
2022-12-31T10:41:14.647Z,19.84
2022-12-31T10:42:16.678Z,20.11
2022-12-31T10:43:18.691Z,20.68
2022-12-31T10:44:20.750Z,21.17
2022-12-31T10:45:22.773Z,21.50
2022-12-31T10:46:24.845Z,20.81
2022-12-31T10:47:26.831Z,20.32
2022-12-31T10:48:28.858Z,20.06
2022-12-31T10:49:30.870Z,19.53
2022-12-31T10:50:32.883Z,19.29
2022-12-31T10:51:34.909Z,18.99
2022-12-31T10:52:41.674Z,18.80
2022-12-31T10:53:38.385Z,18.60
2022-12-31T10:54:40.401Z,18.41
2022-12-31T10:55:42.419Z,18.33
2022-12-31T10:56:44.445Z,18.18
2022-12-31T10:57:46.464Z,18.12
2022-12-31T10:58:48.498Z,18.09
2022-12-31T10:59:50.531Z,18.04
2022-12-31T11:00:52.543Z,18.06
2022-12-31T11:01:54.656Z,18.49
2022-12-31T11:02:56.830Z,18.56
2022-12-31T11:03:57.805Z,18.95
2022-12-31T11:04:59.847Z,18.70
2022-12-31T11:06:01.832Z,18.50
2022-12-31T11:07:03.859Z,18.38
2022-12-31T11:08:05.894Z,18.25
2022-12-31T11:09:07.907Z,18.21
2022-12-31T11:10:09.967Z,18.18
2022-12-31T11:11:12.004Z,18.52
2022-12-31T11:12:14.112Z,18.22
2022-12-31T11:13:16.152Z,18.04
2022-12-31T11:14:18.225Z,17.89
2022-12-31T11:15:20.268Z,17.89
2022-12-31T11:16:22.403Z,17.84
2022-12-31T11:17:24.451Z,17.73
2022-12-31T11:18:26.527Z,17.63
2022-12-31T11:19:28.546Z,17.60
2022-12-31T11:20:30.639Z,17.54
2022-12-31T11:21:34.261Z,17.51
2022-12-31T11:22:34.120Z,17.48
2022-12-31T11:23:36.145Z,17.51
2022-12-31T11:24:38.155Z,17.56
2022-12-31T11:25:40.173Z,17.57
2022-12-31T11:26:42.173Z,17.59
2022-12-31T11:27:47.651Z,17.59
2022-12-31T11:28:45.662Z,17.62
2022-12-31T11:29:47.677Z,17.63
2022-12-31T11:30:49.784Z,17.64
2022-12-31T11:31:51.772Z,17.69
2022-12-31T11:32:53.809Z,17.69
2022-12-31T11:33:55.820Z,17.66
2022-12-31T11:34:57.855Z,17.64
2022-12-31T11:35:59.889Z,17.63
2022-12-31T11:37:01.904Z,17.62
2022-12-31T11:38:03.951Z,17.59
2022-12-31T11:39:05.963Z,17.62
2022-12-31T11:40:07.983Z,17.63
2022-12-31T11:41:10.000Z,17.63
2022-12-31T11:42:12.012Z,17.59
2022-12-31T11:43:14.032Z,17.60
2022-12-31T11:44:16.043Z,17.54
2022-12-31T11:45:18.113Z,17.52
2022-12-31T11:46:20.179Z,17.46
2022-12-31T11:47:22.167Z,17.48
2022-12-31T11:48:32.456Z,17.46
2022-12-31T11:49:25.627Z,17.52
2022-12-31T11:50:27.676Z,17.59
2022-12-31T11:51:29.695Z,17.60
2022-12-31T11:52:32.689Z,17.59
2022-12-31T11:53:33.610Z,17.59
2022-12-31T11:54:35.624Z,17.57
2022-12-31T11:55:37.647Z,17.56
2022-12-31T11:56:39.679Z,17.56
2022-12-31T11:57:41.695Z,17.49
2022-12-31T11:58:43.717Z,17.42
2022-12-31T11:59:45.749Z,17.41
2022-12-31T12:00:47.792Z,17.38
2022-12-31T12:01:49.807Z,17.31
2022-12-31T12:02:51.857Z,17.30
2022-12-31T12:03:53.899Z,17.27
2022-12-31T12:04:55.964Z,17.22
2022-12-31T12:05:57.976Z,17.23
2022-12-31T12:07:00.037Z,17.23
2022-12-31T12:08:02.076Z,17.27
2022-12-31T12:09:04.094Z,17.34
2022-12-31T12:10:06.080Z,17.38
2022-12-31T12:11:08.090Z,17.41
2022-12-31T12:12:10.120Z,17.44
2022-12-31T12:13:12.116Z,17.45
2022-12-31T12:14:14.138Z,17.48
2022-12-31T12:15:16.165Z,17.51
2022-12-31T12:16:18.215Z,17.56
2022-12-31T12:17:20.242Z,17.60
2022-12-31T12:18:22.258Z,17.66
2022-12-31T12:19:24.295Z,17.69
2022-12-31T12:20:26.313Z,17.75
2022-12-31T12:21:28.333Z,17.77
2022-12-31T12:22:30.356Z,17.85
2022-12-31T12:23:32.385Z,17.93
2022-12-31T12:24:34.406Z,17.97
2022-12-31T12:25:36.409Z,18.00
2022-12-31T12:26:38.452Z,18.04
2022-12-31T12:27:40.465Z,18.09
2022-12-31T12:28:44.481Z,18.09
2022-12-31T12:29:44.467Z,18.07
2022-12-31T12:30:46.483Z,18.10
2022-12-31T12:31:48.526Z,18.07
2022-12-31T12:32:50.519Z,18.03
2022-12-31T12:33:52.533Z,18.00
2022-12-31T12:34:54.581Z,17.94
2022-12-31T12:35:56.578Z,17.89
2022-12-31T12:36:58.591Z,17.86
2022-12-31T12:38:00.615Z,17.84
2022-12-31T12:39:02.623Z,17.86
2022-12-31T12:40:04.655Z,17.89
2022-12-31T12:41:06.693Z,17.89
2022-12-31T12:42:08.745Z,17.86
2022-12-31T12:43:10.750Z,17.91
2022-12-31T12:44:12.757Z,17.93
2022-12-31T12:45:14.789Z,17.99
2022-12-31T12:46:16.878Z,17.99
2022-12-31T12:47:18.935Z,17.97
2022-12-31T12:48:30.420Z,17.97
2022-12-31T12:49:22.551Z,17.97
2022-12-31T12:50:24.601Z,18.00
2022-12-31T12:51:26.631Z,17.93
2022-12-31T12:52:28.661Z,17.89
2022-12-31T12:53:30.672Z,17.85
2022-12-31T12:54:32.719Z,17.86
2022-12-31T12:55:34.763Z,17.89
2022-12-31T12:56:36.779Z,17.94
2022-12-31T12:57:38.817Z,17.94
2022-12-31T12:58:40.833Z,17.96
2022-12-31T12:59:42.864Z,17.96
2022-12-31T13:00:44.906Z,17.99
2022-12-31T13:01:47.211Z,17.99
2022-12-31T13:02:48.341Z,17.94
2022-12-31T13:04:31.940Z,17.93
2022-12-31T13:04:51.772Z,17.88
2022-12-31T13:05:53.808Z,17.86
2022-12-31T13:06:55.826Z,17.85
2022-12-31T13:07:57.857Z,17.84
2022-12-31T13:08:59.867Z,17.79
2022-12-31T13:10:01.871Z,17.81
2022-12-31T13:11:03.911Z,17.79
2022-12-31T13:12:07.949Z,17.79
2022-12-31T13:13:24.921Z,17.79
2022-12-31T13:14:10.201Z,17.81
2022-12-31T13:15:11.133Z,17.73
2022-12-31T13:16:13.198Z,17.73
2022-12-31T13:17:15.187Z,17.67
2022-12-31T13:18:17.231Z,17.69
2022-12-31T13:19:19.267Z,17.70
2022-12-31T13:20:21.276Z,17.70
2022-12-31T13:21:23.285Z,17.67
2022-12-31T13:22:25.310Z,17.67
2022-12-31T13:23:27.343Z,17.67
2022-12-31T13:24:29.388Z,17.69
2022-12-31T13:25:31.387Z,17.67
2022-12-31T13:26:33.417Z,17.67
2022-12-31T13:27:35.440Z,17.69
2022-12-31T13:28:37.461Z,17.67
2022-12-31T13:29:39.474Z,17.67
2022-12-31T13:30:41.508Z,17.70
2022-12-31T13:31:43.587Z,17.69
2022-12-31T13:32:45.577Z,17.71
2022-12-31T13:33:47.611Z,17.70
2022-12-31T13:34:49.611Z,17.71
2022-12-31T13:35:51.650Z,17.70
2022-12-31T13:36:53.678Z,17.69
2022-12-31T13:38:00.210Z,17.67
2022-12-31T13:38:57.133Z,17.69
2022-12-31T13:39:59.151Z,17.69
2022-12-31T13:41:01.168Z,17.71
2022-12-31T13:42:03.214Z,17.70
2022-12-31T13:43:05.221Z,17.71
2022-12-31T13:44:07.251Z,17.67
2022-12-31T13:45:09.252Z,17.66
2022-12-31T13:46:11.325Z,17.67
2022-12-31T13:47:13.325Z,17.66
2022-12-31T13:48:15.328Z,17.67
2022-12-31T13:49:17.348Z,17.67
2022-12-31T13:50:19.357Z,17.67
2022-12-31T13:51:21.389Z,17.67
2022-12-31T13:52:23.434Z,17.69
2022-12-31T13:53:25.444Z,17.69
2022-12-31T13:54:27.497Z,17.69
2022-12-31T13:55:29.541Z,17.67
2022-12-31T13:56:31.553Z,17.67
2022-12-31T13:57:33.573Z,17.64
2022-12-31T13:58:35.605Z,17.62
2022-12-31T13:59:37.641Z,17.63
2022-12-31T14:00:39.755Z,17.62
2022-12-31T14:01:41.891Z,17.62
2022-12-31T14:02:44.076Z,17.56
2022-12-31T14:03:45.067Z,17.56
2022-12-31T14:04:47.079Z,17.51
2022-12-31T14:05:49.109Z,17.46
2022-12-31T14:06:51.111Z,17.45
2022-12-31T14:07:53.152Z,17.44
2022-12-31T14:08:55.158Z,17.42
2022-12-31T14:09:57.173Z,17.42
2022-12-31T14:10:59.184Z,17.41
2022-12-31T14:12:01.189Z,17.42
2022-12-31T14:13:03.220Z,17.39
2022-12-31T14:14:05.225Z,17.39
2022-12-31T14:15:07.268Z,17.41
2022-12-31T14:16:09.315Z,17.38
2022-12-31T14:17:11.325Z,17.41
2022-12-31T14:18:13.381Z,17.45
2022-12-31T14:19:15.419Z,17.46
2022-12-31T14:20:17.445Z,17.48
2022-12-31T14:21:19.483Z,17.45
2022-12-31T14:22:21.498Z,17.48
2022-12-31T14:23:23.540Z,17.48
2022-12-31T14:24:25.546Z,17.51
2022-12-31T14:25:27.622Z,17.45
2022-12-31T14:26:29.620Z,17.46
2022-12-31T14:27:31.607Z,17.44
2022-12-31T14:28:33.633Z,17.45
2022-12-31T14:29:35.644Z,17.45
2022-12-31T14:30:37.658Z,17.45
2022-12-31T14:31:39.716Z,17.39
2022-12-31T14:32:41.742Z,17.39
2022-12-31T14:33:43.816Z,17.38
2022-12-31T14:34:45.831Z,17.36
2022-12-31T14:35:47.846Z,17.34
2022-12-31T14:36:49.878Z,17.34
2022-12-31T14:37:51.898Z,17.31
2022-12-31T14:38:53.912Z,17.30
2022-12-31T14:39:55.925Z,17.29
2022-12-31T14:40:57.904Z,17.29
2022-12-31T14:41:59.923Z,17.27
2022-12-31T14:43:01.928Z,17.27
2022-12-31T14:44:03.951Z,17.27
2022-12-31T14:45:05.964Z,17.26
2022-12-31T14:46:08.005Z,17.24
2022-12-31T14:47:10.034Z,17.23
2022-12-31T14:48:12.800Z,17.23
2022-12-31T14:49:13.707Z,17.24
2022-12-31T14:50:15.763Z,17.23
2022-12-31T14:51:17.804Z,17.23
2022-12-31T14:52:19.830Z,17.23
2022-12-31T14:53:21.855Z,17.19
2022-12-31T14:54:28.624Z,17.16
2022-12-31T14:55:25.303Z,17.20
2022-12-31T14:56:27.322Z,17.20
2022-12-31T14:57:29.336Z,17.16
2022-12-31T14:58:31.349Z,17.15
2022-12-31T14:59:40.080Z,17.15
2022-12-31T15:00:34.835Z,17.15
2022-12-31T15:01:36.953Z,17.15
2022-12-31T15:02:39.140Z,17.16
2022-12-31T15:03:45.538Z,17.15
2022-12-31T15:04:41.687Z,17.19
2022-12-31T15:05:43.709Z,17.14
2022-12-31T15:06:45.781Z,17.15
2022-12-31T15:07:47.826Z,17.12
2022-12-31T15:08:49.833Z,17.11
2022-12-31T15:09:51.860Z,17.08
2022-12-31T15:10:53.866Z,17.08
2022-12-31T15:11:56.048Z,17.06
